Time;durP1;ratioP1;P1;durP2;ratioP2;P2;SDS_P1;SDS_P2;PMS_P1;PMS_P2;Temp;Humidity;BMP_temperature;BMP_pressure;BME280_temperature;BME280_humidity;BME280_pressure;Samples;Min_cycle;Max_cycle;Signal;HPM_P1;HPM_P2
2021/05/08 00:00:09;;;;;;;6.13;3.58;;;13.00;92.80;13.00;99734.00;;;;340685;28;97897;-88
2021/05/08 00:00:21;;;;;;;6.57;3.42;;;13.00;92.80;12.90;99727.00;;;;342960;28;83453;-86
2021/05/08 00:00:33;;;;;;;5.18;3.15;;;13.00;92.80;12.90;99731.00;;;;342211;28;95219;-87
2021/05/08 00:00:44;;;;;;;4.65;3.10;;;12.90;92.90;12.80;99735.00;;;;343023;28;83623;-86
2021/05/08 00:00:56;;;;;;;4.50;3.25;;;12.90;92.90;12.80;99725.00;;;;342065;28;96850;-87
2021/05/08 00:01:07;;;;;;;4.57;3.22;;;12.90;92.90;12.70;99732.00;;;;342532;28;83527;-88
2021/05/08 00:01:19;;;;;;;5.20;3.40;;;12.90;92.90;12.80;99724.00;;;;343494;28;94890;-87
2021/05/08 00:01:30;;;;;;;4.80;3.60;;;12.90;92.90;12.80;99732.00;;;;344129;28;85191;-89
2021/05/08 00:01:41;;;;;;;4.78;3.60;;;12.90;92.90;12.80;99728.00;;;;342270;28;93793;-86
2021/05/08 00:01:53;;;;;;;5.45;4.00;;;12.90;93.00;12.80;99736.00;;;;342940;28;84441;-87
2021/05/08 00:02:04;;;;;;;6.20;4.03;;;12.90;93.00;12.90;99724.00;;;;342332;28;94384;-87
2021/05/08 00:02:16;;;;;;;6.20;4.05;;;12.90;93.00;12.80;99731.00;;;;342849;28;84623;-87
2021/05/08 00:02:28;;;;;;;4.30;3.47;;;12.90;93.00;12.80;99725.00;;;;342098;28;95797;-88
2021/05/08 00:02:41;;;;;;;4.45;3.25;;;12.90;93.00;12.80;99732.00;;;;341224;28;83382;-86
2021/05/08 00:02:52;;;;;;;4.50;3.30;;;12.90;93.10;12.80;99734.00;;;;342586;28;94763;-86
2021/05/08 00:03:04;;;;;;;4.90;3.65;;;12.80;93.20;12.80;99724.00;;;;344200;28;84845;-89
2021/05/08 00:03:15;;;;;;;5.70;3.78;;;12.80;93.30;12.70;99729.00;;;;343694;28;94375;-87
2021/05/08 00:03:26;;;;;;;6.68;3.92;;;12.80;93.20;12.80;99727.00;;;;341751;28;82410;-86
2021/05/08 00:03:38;;;;;;;6.25;3.65;;;12.80;93.20;12.80;99723.00;;;;339247;28;97278;-90
2021/05/08 00:03:49;;;;;;;6.00;3.65;;;12.80;93.10;12.90;99720.00;;;;341719;28;83402;-86
2021/05/08 00:04:00;;;;;;;4.80;3.22;;;12.80;93.00;12.90;99719.00;;;;340667;28;96753;-87
2021/05/08 00:04:11;;;;;;;4.95;3.00;;;12.80;93.00;12.80;99723.00;;;;342908;28;83398;-86
2021/05/08 00:04:23;;;;;;;4.95;3.25;;;12.80;93.00;12.70;99724.00;;;;343569;28;95168;-86
2021/05/08 00:04:34;;;;;;;5.93;3.67;;;12.80;93.10;12.90;99721.00;;;;344408;28;83657;-87
2021/05/08 00:04:46;;;;;;;5.47;3.63;;;12.80;93.10;13.10;99719.00;;;;342241;28;93220;-86
2021/05/08 00:04:57;;;;;;;4.93;3.42;;;12.80;93.10;13.10;99725.00;;;;341298;28;84965;-86
2021/05/08 00:05:10;;;;;;;5.00;3.50;;;12.80;93.10;13.00;99727.00;;;;342313;28;94015;-86
2021/05/08 00:05:21;;;;;;;6.88;4.15;;;12.80;93.10;13.10;99722.00;;;;342883;28;85760;-86
2021/05/08 00:05:33;;;;;;;7.15;4.13;;;12.80;93.10;13.10;99726.00;;;;342225;28;94612;-86
2021/05/08 00:05:46;;;;;;;6.18;3.75;;;12.90;93.10;13.10;99726.00;;;;343100;28;82546;-87
2021/05/08 00:05:58;;;;;;;5.13;3.40;;;12.90;93.00;13.10;99720.00;;;;342002;28;95959;-87
2021/05/08 00:06:12;;;;;;;3.72;2.92;;;12.90;93.00;13.10;99727.00;;;;343401;28;83451;-86
2021/05/08 00:06:23;;;;;;;3.97;3.05;;;12.90;93.00;13.00;99726.00;;;;342133;28;98542;-87
2021/05/08 00:06:35;;;;;;;3.88;2.97;;;12.90;93.10;13.10;99720.00;;;;345449;28;83926;-86
2021/05/08 00:06:46;;;;;;;4.25;3.15;;;12.90;93.10;13.00;99717.00;;;;340729;28;97264;-90
2021/05/08 00:06:59;;;;;;;5.55;3.30;;;12.90;93.20;12.80;99738.00;;;;342639;28;83749;-88
2021/05/08 00:07:10;;;;;;;6.25;3.35;;;12.90;93.20;12.80;99729.00;;;;340834;28;97374;-87
2021/05/08 00:07:21;;;;;;;5.10;3.10;;;12.90;93.10;12.80;99730.00;;;;343001;28;83475;-86
2021/05/08 00:07:33;;;;;;;4.22;2.70;;;12.90;93.10;12.80;99727.00;;;;343635;28;95067;-88
2021/05/08 00:07:44;;;;;;;4.72;2.80;;;12.80;93.10;12.90;99730.00;;;;342823;28;84669;-87
2021/05/08 00:07:55;;;;;;;4.75;2.85;;;12.80;93.10;12.80;99734.00;;;;340910;28;94957;-86
2021/05/08 00:08:07;;;;;;;5.07;2.90;;;12.80;93.20;12.80;99733.00;;;;345368;28;83981;-87
2021/05/08 00:08:18;;;;;;;4.80;3.20;;;12.80;93.20;12.80;99735.00;;;;343475;28;95891;-86
2021/05/08 00:08:29;;;;;;;5.93;3.60;;;12.80;93.20;12.80;99724.00;;;;343003;28;83301;-86
2021/05/08 00:08:40;;;;;;;6.55;4.00;;;12.80;93.10;12.80;99727.00;;;;342668;28;96848;-86
2021/05/08 00:08:52;;;;;;;7.35;3.72;;;12.80;93.10;12.80;99731.00;;;;342814;28;83336;-86
2021/05/08 00:09:07;;;;;;;5.78;3.50;;;12.80;93.10;12.90;99735.00;;;;340915;28;94549;-86
2021/05/08 00:09:18;;;;;;;4.32;3.17;;;12.80;93.00;13.00;99723.00;;;;341669;28;82396;-86
2021/05/08 00:09:30;;;;;;;5.80;2.75;;;12.80;93.00;13.00;99732.00;;;;340813;28;97422;-86
2021/05/08 00:09:42;;;;;;;6.03;2.90;;;12.80;93.00;13.00;99726.00;;;;340189;28;83517;-87
2021/05/08 00:09:53;;;;;;;5.90;3.17;;;12.80;93.00;13.00;99728.00;;;;340763;28;94477;-86
2021/05/08 00:10:10;;;;;;;4.30;3.20;;;12.80;93.00;12.80;99727.00;;;;342911;28;85417;-87
2021/05/08 00:10:21;;;;;;;4.88;3.40;;;12.80;93.10;13.00;99726.00;;;;340944;28;94761;-86
2021/05/08 00:10:33;;;;;;;4.57;3.28;;;12.80;93.10;13.10;99729.00;;;;340198;28;84689;-87
2021/05/08 00:10:44;;;;;;;4.18;3.15;;;12.90;93.10;13.00;99725.00;;;;340818;28;94811;-87
2021/05/08 00:10:56;;;;;;;3.70;2.88;;;12.90;93.10;13.10;99732.00;;;;341525;28;82506;-87
2021/05/08 00:11:07;;;;;;;3.85;2.92;;;12.90;93.00;13.00;99724.00;;;;341014;28;94854;-86
2021/05/08 00:11:18;;;;;;;3.80;2.50;;;12.90;93.00;12.90;99730.00;;;;340327;28;83358;-86
2021/05/08 00:11:30;;;;;;;4.43;2.90;;;12.90;93.10;12.90;99726.00;;;;341002;28;94195;-86
2021/05/08 00:11:41;;;;;;;4.68;3.03;;;12.90;93.10;12.80;99728.00;;;;340229;28;82595;-86
2021/05/08 00:11:55;;;;;;;5.68;3.22;;;12.90;93.10;12.80;99730.00;;;;342773;28;94369;-86
2021/05/08 00:12:07;;;;;;;4.90;2.72;;;12.90;93.10;12.90;99729.00;;;;344026;28;83412;-86
2021/05/08 00:12:18;;;;;;;3.50;2.45;;;12.80;93.00;13.10;99733.00;;;;344706;28;95986;-88
2021/05/08 00:12:30;;;;;;;3.28;2.28;;;12.80;93.00;13.10;99732.00;;;;342968;28;83720;-86
2021/05/08 00:12:42;;;;;;;3.28;2.42;;;12.90;93.00;13.10;99730.00;;;;340809;28;97326;-86
2021/05/08 00:12:53;;;;;;;3.58;2.55;;;12.90;93.00;13.20;99729.00;;;;344278;28;84019;-86
2021/05/08 00:13:04;;;;;;;3.88;2.65;;;12.90;92.90;13.10;99735.00;;;;342275;28;94394;-86
2021/05/08 00:13:16;;;;;;;4.03;2.50;;;12.90;92.90;13.00;99725.00;;;;345425;28;83723;-86
2021/05/08 00:13:27;;;;;;;3.95;2.60;;;12.90;93.00;12.90;99729.00;;;;341980;28;96101;-88
2021/05/08 00:13:38;;;;;;;3.55;2.50;;;12.90;93.10;12.80;99731.00;;;;344166;28;84614;-87
2021/05/08 00:13:50;;;;;;;3.80;2.67;;;12.90;93.10;12.90;99726.00;;;;344807;28;97886;-86
2021/05/08 00:14:01;;;;;;;4.47;2.65;;;12.90;93.00;13.00;99724.00;;;;342843;28;85464;-85
2021/05/08 00:14:12;;;;;;;4.35;2.50;;;12.90;93.00;12.80;99731.00;;;;343430;28;97840;-86
2021/05/08 00:14:25;;;;;;;3.63;2.50;;;12.90;93.00;12.90;99722.00;;;;342722;28;83947;-86
2021/05/08 00:14:36;;;;;;;4.18;2.83;;;12.90;93.00;12.80;99722.00;;;;343166;28;93998;-87
2021/05/08 00:14:47;;;;;;;4.30;2.83;;;12.90;93.10;12.80;99731.00;;;;342723;28;84377;-88
2021/05/08 00:14:59;;;;;;;3.65;2.58;;;12.80;93.10;12.80;99726.00;;;;340899;28;94484;-89
2021/05/08 00:15:12;;;;;;;3.10;2.15;;;12.90;93.20;12.80;99734.00;;;;341583;28;83497;-87
2021/05/08 00:15:25;;;;;;;3.28;2.38;;;12.90;93.10;12.90;99722.00;;;;343554;28;96422;-86
2021/05/08 00:15:36;;;;;;;3.97;2.72;;;12.80;93.10;13.00;99732.00;;;;341674;28;82882;-87
2021/05/08 00:15:47;;;;;;;4.35;2.55;;;12.80;93.00;13.00;99729.00;;;;342261;28;93947;-88
2021/05/08 00:15:59;;;;;;;4.00;2.25;;;12.80;93.00;13.00;99727.00;;;;342933;28;83359;-86
2021/05/08 00:16:10;;;;;;;4.45;2.40;;;12.80;93.00;13.00;99718.00;;;;344664;28;97108;-88
2021/05/08 00:16:21;;;;;;;4.53;2.67;;;12.80;93.00;13.10;99729.00;;;;341472;28;83975;-88
2021/05/08 00:16:33;;;;;;;4.88;2.72;;;12.80;92.90;13.20;99737.00;;;;341905;28;94435;-86
2021/05/08 00:16:45;;;;;;;5.13;2.75;;;12.80;92.90;13.10;99729.00;;;;341542;28;84897;-87
2021/05/08 00:16:57;;;;;;;5.03;2.65;;;12.90;93.00;12.90;99728.00;;;;343265;28;96140;-86
2021/05/08 00:17:08;;;;;;;4.60;2.78;;;12.90;93.00;12.80;99732.00;;;;344470;28;82427;-86
2021/05/08 00:17:20;;;;;;;3.70;2.67;;;12.90;93.00;12.90;99734.00;;;;343483;28;94945;-90
2021/05/08 00:17:31;;;;;;;3.42;2.63;;;12.90;93.00;13.00;99731.00;;;;344170;28;85348;-87
2021/05/08 00:17:43;;;;;;;3.35;2.67;;;12.90;92.90;12.90;99733.00;;;;341905;28;95112;-86
2021/05/08 00:17:55;;;;;;;3.33;2.75;;;12.80;92.80;13.10;99728.00;;;;341472;28;84774;-87
2021/05/08 00:18:06;;;;;;;4.07;2.72;;;12.90;92.90;13.20;99739.00;;;;339803;28;95051;-87
2021/05/08 00:18:18;;;;;;;3.90;2.35;;;12.90;92.90;13.20;99734.00;;;;342827;28;84570;-86
2021/05/08 00:18:29;;;;;;;3.75;1.98;;;12.90;92.90;13.20;99730.00;;;;342214;28;94676;-88
2021/05/08 00:18:41;;;;;;;3.40;1.70;;;12.90;92.80;13.00;99730.00;;;;341331;28;85276;-90
2021/05/08 00:18:52;;;;;;;3.67;1.80;;;12.90;92.80;12.90;99733.00;;;;340602;28;95911;-87
2021/05/08 00:19:04;;;;;;;3.47;1.83;;;12.90;92.80;13.00;99731.00;;;;342943;28;83479;-87
2021/05/08 00:19:15;;;;;;;3.80;2.03;;;12.90;92.80;12.90;99741.00;;;;342248;28;97868;-86
2021/05/08 00:19:27;;;;;;;3.55;2.10;;;12.90;92.80;12.80;99736.00;;;;340299;28;83390;-88
2021/05/08 00:19:38;;;;;;;3.40;2.03;;;12.90;92.80;12.80;99737.00;;;;342182;28;94400;-86
2021/05/08 00:19:49;;;;;;;3.63;2.00;;;12.80;92.80;12.90;99732.00;;;;342613;28;83968;-87
2021/05/08 00:20:00;;;;;;;4.75;2.40;;;12.80;92.80;12.90;99739.00;;;;342117;28;98866;-86
2021/05/08 00:20:14;;;;;;;4.45;2.38;;;12.80;92.80;12.80;99731.00;;;;342832;28;84022;-86
2021/05/08 00:20:25;;;;;;;3.60;2.40;;;12.80;92.90;12.80;99736.00;;;;339460;28;95738;-89
2021/05/08 00:20:36;;;;;;;3.95;2.30;;;12.80;93.00;12.70;99740.00;;;;343135;28;84444;-88
2021/05/08 00:20:48;;;;;;;3.88;2.42;;;12.80;93.00;12.70;99744.00;;;;342893;28;96703;-87
2021/05/08 00:20:59;;;;;;;4.00;2.63;;;12.80;93.00;12.80;99728.00;;;;342738;28;85412;-86
2021/05/08 00:21:11;;;;;;;3.67;2.70;;;12.80;93.10;12.80;99734.00;;;;340545;28;96035;-87
2021/05/08 00:21:23;;;;;;;3.63;2.42;;;12.80;93.00;12.80;99739.00;;;;342436;28;83847;-89
2021/05/08 00:21:34;;;;;;;3.30;1.95;;;12.80;93.10;12.80;99733.00;;;;344806;28;95008;-86
2021/05/08 00:21:51;;;;;;;3.90;2.08;;;12.80;93.00;12.80;99732.00;;;;341426;28;83466;-86
2021/05/08 00:22:02;;;;;;;3.58;2.03;;;12.70;92.90;12.80;99738.00;;;;342135;28;98416;-86
2021/05/08 00:22:14;;;;;;;2.80;2.15;;;12.70;92.90;12.90;99740.00;;;;341500;28;84961;-86
2021/05/08 00:22:25;;;;;;;2.88;2.38;;;12.70;92.90;12.90;99736.00;;;;339485;28;97237;-87
2021/05/08 00:22:38;;;;;;;3.47;2.17;;;12.80;92.90;12.90;99732.00;;;;341632;28;84449;-86
2021/05/08 00:22:49;;;;;;;5.20;2.20;;;12.80;92.80;12.90;99727.00;;;;342263;28;93785;-87
2021/05/08 00:23:01;;;;;;;4.95;2.20;;;12.80;92.80;13.00;99742.00;;;;341667;28;82793;-86
2021/05/08 00:23:12;;;;;;;4.68;2.38;;;12.80;92.80;13.00;99734.00;;;;343524;28;97986;-86
2021/05/08 00:23:24;;;;;;;3.63;2.22;;;12.80;92.80;13.10;99741.00;;;;343000;28;83588;-86
2021/05/08 00:23:35;;;;;;;3.58;2.10;;;12.80;92.80;13.10;99735.00;;;;343597;28;94738;-86
2021/05/08 00:23:47;;;;;;;2.92;1.95;;;12.80;92.80;13.10;99735.00;;;;342729;28;83863;-86
2021/05/08 00:23:58;;;;;;;2.85;1.63;;;12.80;92.80;13.10;99737.00;;;;342125;28;95471;-86
2021/05/08 00:24:10;;;;;;;2.95;1.60;;;12.80;92.80;13.00;99728.00;;;;342742;28;83412;-86
2021/05/08 00:24:21;;;;;;;2.97;1.70;;;12.80;92.80;12.90;99735.00;;;;342213;28;97208;-86
2021/05/08 00:24:33;;;;;;;3.45;2.08;;;12.80;92.80;13.00;99737.00;;;;341638;28;84471;-86
2021/05/08 00:24:44;;;;;;;4.25;2.10;;;12.80;92.80;13.00;99734.00;;;;342311;28;94094;-86
2021/05/08 00:24:56;;;;;;;3.88;1.80;;;12.80;92.80;12.90;99726.00;;;;341902;28;82863;-87
2021/05/08 00:25:08;;;;;;;3.70;1.58;;;12.80;92.70;12.80;99733.00;;;;342201;28;97074;-87
2021/05/08 00:25:20;;;;;;;3.67;1.67;;;12.80;92.80;12.80;99738.00;;;;342893;28;85134;-86
2021/05/08 00:25:31;;;;;;;2.75;1.70;;;12.80;92.80;12.70;99739.00;;;;342249;28;94770;-86
2021/05/08 00:25:43;;;;;;;2.58;1.70;;;12.80;92.80;12.60;99735.00;;;;342966;28;83479;-86
2021/05/08 00:25:54;;;;;;;2.80;1.90;;;12.70;92.80;12.60;99739.00;;;;340886;28;95423;-87
2021/05/08 00:26:06;;;;;;;3.47;2.13;;;12.70;92.90;12.70;99732.00;;;;342948;28;83378;-86
2021/05/08 00:26:17;;;;;;;3.75;2.03;;;12.70;93.20;12.80;99740.00;;;;342177;28;94489;-87
2021/05/08 00:26:29;;;;;;;5.78;2.17;;;12.70;92.90;12.90;99739.00;;;;340185;28;84545;-86
2021/05/08 00:26:40;;;;;;;5.10;1.85;;;12.70;92.90;12.80;99738.00;;;;342850;28;97431;-86
2021/05/08 00:26:52;;;;;;;3.90;1.92;;;12.70;93.00;12.70;99738.00;;;;345758;28;83333;-86
2021/05/08 00:27:04;;;;;;;4.47;2.00;;;12.70;93.00;12.70;99736.00;;;;342045;28;97017;-86
2021/05/08 00:27:15;;;;;;;4.30;2.20;;;12.70;92.90;12.60;99737.00;;;;341619;28;82720;-87
2021/05/08 00:27:27;;;;;;;3.42;1.92;;;12.70;93.00;12.60;99735.00;;;;340932;28;94148;-87
2021/05/08 00:27:38;;;;;;;3.55;2.10;;;12.70;93.00;12.70;99740.00;;;;343234;28;82421;-87
2021/05/08 00:27:49;;;;;;;4.20;2.00;;;12.70;93.00;12.80;99741.00;;;;342009;28;96445;-87
2021/05/08 00:28:01;;;;;;;3.95;1.70;;;12.70;93.00;12.70;99729.00;;;;341559;28;82534;-87
2021/05/08 00:28:12;;;;;;;3.17;1.70;;;12.70;93.10;12.70;99740.00;;;;343661;28;94464;-86
2021/05/08 00:28:24;;;;;;;3.22;2.00;;;12.70;93.10;12.70;99738.00;;;;342894;28;84994;-86
2021/05/08 00:28:35;;;;;;;3.60;2.10;;;12.70;93.10;12.60;99729.00;;;;342339;28;94659;-86
2021/05/08 00:28:48;;;;;;;3.50;2.13;;;12.70;93.10;12.50;99743.00;;;;342922;28;85106;-87
2021/05/08 00:28:59;;;;;;;3.10;1.83;;;12.70;93.10;12.50;99742.00;;;;339555;28;93226;-87
2021/05/08 00:29:11;;;;;;;3.35;1.60;;;12.70;93.10;12.70;99743.00;;;;340200;28;84898;-87
2021/05/08 00:29:22;;;;;;;2.92;1.42;;;12.70;93.10;12.80;99732.00;;;;340870;28;96947;-85
2021/05/08 00:29:34;;;;;;;3.50;1.60;;;12.70;93.10;12.80;99731.00;;;;339968;28;84050;-86
2021/05/08 00:29:45;;;;;;;3.58;1.70;;;12.70;93.10;12.80;99731.00;;;;340634;28;98365;-87
2021/05/08 00:29:57;;;;;;;3.42;1.80;;;12.70;93.10;12.90;99731.00;;;;342875;28;85512;-87
2021/05/08 00:30:09;;;;;;;3.65;1.90;;;12.70;93.00;12.80;99737.00;;;;342203;28;94520;-87
2021/05/08 00:30:21;;;;;;;3.90;2.00;;;12.70;93.10;12.80;99731.00;;;;341631;28;83317;-86
2021/05/08 00:30:34;;;;;;;3.75;2.00;;;12.70;93.00;12.90;99734.00;;;;339458;28;97473;-86
2021/05/08 00:30:46;;;;;;;3.00;1.88;;;12.70;93.10;12.80;99730.00;;;;344331;28;83605;-86
2021/05/08 00:30:57;;;;;;;2.60;1.60;;;12.70;93.10;12.60;99731.00;;;;340940;28;94895;-86
2021/05/08 00:31:08;;;;;;;2.78;1.65;;;12.70;93.00;12.80;99731.00;;;;344309;28;83443;-86
2021/05/08 00:31:20;;;;;;;3.13;1.45;;;12.70;93.00;12.80;99729.00;;;;342260;28;96885;-86
2021/05/08 00:31:32;;;;;;;4.18;1.60;;;12.70;93.00;12.80;99726.00;;;;341652;28;83573;-86
2021/05/08 00:31:44;;;;;;;5.35;1.75;;;12.70;93.00;12.80;99734.00;;;;340732;28;97361;-86
2021/05/08 00:31:55;;;;;;;5.32;1.92;;;12.70;93.00;12.70;99732.00;;;;344190;28;83671;-86
2021/05/08 00:32:07;;;;;;;3.63;1.65;;;12.70;93.00;12.60;99734.00;;;;342194;28;95886;-85
2021/05/08 00:32:18;;;;;;;3.60;1.88;;;12.70;93.10;12.70;99736.00;;;;344242;28;84724;-86
2021/05/08 00:32:31;;;;;;;4.88;2.00;;;12.70;93.10;12.80;99737.00;;;;342241;28;97420;-86
2021/05/08 00:32:43;;;;;;;5.13;1.73;;;12.70;93.00;12.90;99738.00;;;;342800;28;88731;-85
2021/05/08 00:32:54;;;;;;;4.82;1.95;;;12.70;93.00;12.80;99732.00;;;;342235;28;94957;-86
2021/05/08 00:33:06;;;;;;;5.32;2.15;;;12.70;93.10;12.80;99731.00;;;;340209;28;83487;-86
2021/05/08 00:33:17;;;;;;;5.95;2.03;;;12.70;93.10;12.80;99731.00;;;;340868;28;96986;-86
2021/05/08 00:33:29;;;;;;;5.07;2.03;;;12.70;93.10;12.80;99724.00;;;;342993;28;83288;-87
2021/05/08 00:33:40;;;;;;;3.22;1.75;;;12.60;93.20;12.90;99736.00;;;;342131;28;95943;-86
2021/05/08 00:33:52;;;;;;;2.92;1.98;;;12.60;93.10;12.80;99726.00;;;;345693;28;84407;-86
2021/05/08 00:34:03;;;;;;;2.70;1.92;;;12.60;93.10;12.80;99730.00;;;;340718;28;96008;-89
2021/05/08 00:34:15;;;;;;;2.88;1.88;;;12.60;93.20;12.70;99732.00;;;;342938;28;83420;-86
2021/05/08 00:34:26;;;;;;;3.65;2.13;;;12.60;93.20;12.90;99732.00;;;;343427;28;95835;-86
2021/05/08 00:34:38;;;;;;;3.83;1.67;;;12.60;93.20;13.00;99731.00;;;;342863;28;85209;-86
2021/05/08 00:34:49;;;;;;;3.72;1.40;;;12.60;93.20;13.00;99727.00;;;;340885;28;94404;-87
2021/05/08 00:35:01;;;;;;;3.72;1.50;;;12.60;93.20;13.10;99732.00;;;;343035;28;83274;-87
2021/05/08 00:35:12;;;;;;;3.72;1.92;;;12.70;93.20;13.10;99731.00;;;;342225;28;94109;-86
2021/05/08 00:35:24;;;;;;;4.13;2.17;;;12.70;93.20;12.90;99723.00;;;;341609;28;85119;-86
2021/05/08 00:35:35;;;;;;;3.75;2.20;;;12.70;93.20;12.70;99720.00;;;;339470;28;94991;-88
2021/05/08 00:35:47;;;;;;;4.30;2.42;;;12.70;93.20;12.60;99732.00;;;;342950;28;85099;-86
2021/05/08 00:35:58;;;;;;;2.97;2.10;;;12.70;93.20;12.70;99729.00;;;;342322;28;96465;-86
2021/05/08 00:36:10;;;;;;;3.38;2.15;;;12.70;93.20;12.80;99731.00;;;;340217;28;83392;-86
2021/05/08 00:36:21;;;;;;;3.38;1.85;;;12.70;93.20;12.90;99735.00;;;;343509;28;97929;-86
2021/05/08 00:36:34;;;;;;;4.22;2.30;;;12.70;93.20;12.60;99734.00;;;;340145;28;85082;-86
2021/05/08 00:36:46;;;;;;;4.88;2.55;;;12.70;93.20;12.50;99731.00;;;;340782;28;98356;-86
2021/05/08 00:36:57;;;;;;;4.53;2.50;;;12.70;93.20;12.40;99737.00;;;;342944;28;83385;-86
2021/05/08 00:37:09;;;;;;;3.38;2.30;;;12.60;93.30;12.30;99739.00;;;;343496;28;95288;-86
2021/05/08 00:37:20;;;;;;;3.38;2.20;;;12.60;93.40;12.60;99739.00;;;;342973;28;83369;-86
2021/05/08 00:37:32;;;;;;;3.95;2.00;;;12.60;93.40;12.60;99742.00;;;;342205;28;96037;-86
2021/05/08 00:37:43;;;;;;;3.42;1.77;;;12.60;93.30;12.70;99734.00;;;;342971;28;83451;-86
2021/05/08 00:37:55;;;;;;;2.90;1.70;;;12.60;93.30;12.50;99740.00;;;;339586;28;94534;-85
2021/05/08 00:38:06;;;;;;;2.65;1.70;;;12.60;93.30;12.70;99740.00;;;;344217;28;85509;-86
2021/05/08 00:38:17;;;;;;;3.67;1.98;;;12.60;93.40;12.80;99736.00;;;;340674;28;94784;-86
2021/05/08 00:38:29;;;;;;;3.75;2.05;;;12.60;93.40;12.90;99732.00;;;;343093;28;83182;-86
2021/05/08 00:38:41;;;;;;;3.80;2.10;;;12.60;93.40;12.90;99735.00;;;;342150;28;97698;-86
2021/05/08 00:38:52;;;;;;;3.60;2.35;;;12.60;93.60;12.80;99741.00;;;;341459;28;84936;-86
2021/05/08 00:39:04;;;;;;;4.13;2.53;;;12.60;93.50;12.60;99739.00;;;;343596;28;96982;-86
2021/05/08 00:39:15;;;;;;;5.88;2.55;;;12.60;93.50;12.70;99743.00;;;;341640;28;83411;-86
2021/05/08 00:39:27;;;;;;;5.55;2.30;;;12.70;93.50;12.90;99741.00;;;;342141;28;98390;-85
2021/05/08 00:39:38;;;;;;;5.25;2.03;;;12.70;93.40;12.90;99730.00;;;;340264;28;83500;-86
2021/05/08 00:39:50;;;;;;;4.18;2.03;;;12.70;93.40;13.00;99735.00;;;;340719;28;97964;-86
2021/05/08 00:40:03;;;;;;;3.53;1.73;;;12.70;93.30;13.10;99738.00;;;;340243;28;83417;-86
2021/05/08 00:40:15;;;;;;;2.95;1.90;;;12.70;93.40;13.00;99743.00;;;;342165;28;94094;-86
2021/05/08 00:40:26;;;;;;;3.22;2.13;;;12.70;93.50;12.80;99743.00;;;;343029;28;83444;-86
2021/05/08 00:40:37;;;;;;;5.22;2.42;;;12.70;93.40;12.60;99741.00;;;;343672;28;93671;-86
2021/05/08 00:40:49;;;;;;;5.57;2.47;;;12.70;93.40;12.50;99746.00;;;;344322;28;83270;-87
2021/05/08 00:41:00;;;;;;;5.25;2.35;;;12.70;93.40;12.40;99747.00;;;;342254;28;95049;-86
2021/05/08 00:41:11;;;;;;;4.40;2.40;;;12.60;93.70;12.40;99743.00;;;;341470;28;85346;-86
2021/05/08 00:41:23;;;;;;;4.75;2.30;;;12.60;93.50;12.30;99747.00;;;;342263;28;95399;-86
2021/05/08 00:41:36;;;;;;;5.63;2.70;;;12.60;93.50;12.20;99744.00;;;;344232;28;85577;-86
2021/05/08 00:41:48;;;;;;;4.85;2.53;;;12.60;93.50;12.20;99741.00;;;;340873;28;95480;-86
2021/05/08 00:41:59;;;;;;;5.70;2.80;;;12.60;93.60;12.30;99748.00;;;;344358;28;83770;-86
2021/05/08 00:42:10;;;;;;;5.93;2.47;;;12.60;93.60;12.30;99738.00;;;;341460;28;97605;-87
2021/05/08 00:42:21;;;;;;;8.50;2.65;;;12.60;93.60;12.40;99739.00;;;;341678;28;82400;-86
2021/05/08 00:42:33;;;;;;;7.88;2.65;;;12.60;93.70;12.30;99737.00;;;;342243;28;97088;-86
2021/05/08 00:42:45;;;;;;;5.75;2.70;;;12.50;93.70;12.30;99738.00;;;;341454;28;83702;-86
2021/05/08 00:42:56;;;;;;;4.35;2.70;;;12.50;93.70;12.20;99743.00;;;;343650;28;94167;-86
2021/05/08 00:43:07;;;;;;;4.82;2.75;;;12.50;93.80;12.10;99742.00;;;;342827;28;82537;-89
2021/05/08 00:43:19;;;;;;;5.30;2.83;;;12.50;93.80;12.10;99736.00;;;;342069;28;98679;-86
2021/05/08 00:43:30;;;;;;;7.03;2.85;;;12.50;93.90;12.00;99741.00;;;;344280;28;83319;-86
2021/05/08 00:43:42;;;;;;;6.13;3.08;;;12.50;93.90;12.00;99743.00;;;;343606;28;95660;-86
2021/05/08 00:43:57;;;;;;;4.82;2.95;;;12.50;94.00;12.00;99743.00;;;;343993;28;85311;-87
2021/05/08 00:44:08;;;;;;;4.63;2.80;;;12.40;94.00;12.00;99729.00;;;;343593;28;94204;-87
2021/05/08 00:44:24;;;;;;;5.32;2.83;;;12.40;94.00;12.00;99744.00;;;;345511;28;85170;-86
2021/05/08 00:44:35;;;;;;;6.10;2.90;;;12.40;94.00;12.10;99737.00;;;;343107;28;96935;-87
2021/05/08 00:44:47;;;;;;;5.47;2.85;;;12.40;94.00;12.30;99739.00;;;;343177;28;83450;-88
2021/05/08 00:44:58;;;;;;;4.93;2.75;;;12.40;94.00;12.30;99737.00;;;;342099;28;97920;-86
2021/05/08 00:45:09;;;;;;;5.07;2.78;;;12.40;94.10;12.20;99737.00;;;;343295;28;84708;-88
2021/05/08 00:45:21;;;;;;;5.82;2.97;;;12.40;94.10;12.10;99730.00;;;;342126;28;95020;-86
2021/05/08 00:45:32;;;;;;;5.95;2.97;;;12.40;94.10;12.00;99747.00;;;;342914;28;82385;-86
2021/05/08 00:45:44;;;;;;;4.65;2.70;;;12.40;94.20;12.00;99738.00;;;;342392;28;94088;-85
2021/05/08 00:45:55;;;;;;;4.38;2.83;;;12.30;94.20;12.00;99737.00;;;;344293;28;85191;-87
2021/05/08 00:47:11;;;;;;;4.63;2.47;;;12.30;94.20;11.90;99738.00;;;;343595;28;96861;-86
2021/05/08 00:47:29;;;;;;;7.00;3.17;;;12.30;94.60;11.90;99735.00;;;;344200;28;82589;-86
2021/05/08 00:47:47;;;;;;;7.13;3.22;;;12.20;94.40;11.80;99731.00;;;;343468;28;95614;-85
2021/05/08 00:48:06;;;;;;;5.57;3.25;;;12.20;94.50;11.80;99732.00;;;;345713;28;83324;-85
2021/05/08 00:48:18;;;;;;;4.93;3.17;;;12.20;94.60;11.80;99731.00;;;;340736;28;94275;-86
2021/05/08 00:48:29;;;;;;;4.97;3.20;;;12.10;94.60;11.80;99729.00;;;;341441;28;84735;-87
2021/05/08 00:48:40;;;;;;;5.13;3.05;;;12.20;94.70;11.70;99730.00;;;;342543;28;98486;-85
2021/05/08 00:48:53;;;;;;;5.35;3.20;;;12.20;94.70;11.70;99729.00;;;;343938;28;83876;-86
2021/05/08 00:49:05;;;;;;;5.38;3.08;;;12.10;95.00;11.80;99729.00;;;;340887;28;94391;-87
2021/05/08 00:49:19;;;;;;;4.90;3.03;;;12.10;94.80;11.80;99733.00;;;;341541;28;83330;-86
2021/05/08 00:49:31;;;;;;;4.82;3.55;;;12.10;94.80;11.90;99731.00;;;;340840;28;94372;-86
2021/05/08 00:49:44;;;;;;;5.72;3.75;;;12.10;94.90;11.80;99729.00;;;;341526;28;84925;-87
2021/05/08 00:49:56;;;;;;;6.20;3.42;;;12.10;94.80;11.70;99720.00;;;;340647;28;94889;-86
2021/05/08 00:50:09;;;;;;;4.80;2.92;;;12.10;94.90;11.70;99728.00;;;;340267;28;83437;-86
2021/05/08 00:50:20;;;;;;;5.22;3.00;;;12.10;94.90;11.70;99727.00;;;;339352;28;96481;-86
2021/05/08 00:50:33;;;;;;;5.32;2.80;;;12.10;94.90;12.00;99723.00;;;;342930;28;83547;-86
2021/05/08 00:50:44;;;;;;;5.43;2.72;;;12.10;95.00;12.20;99724.00;;;;342837;28;97172;-86
2021/05/08 00:50:57;;;;;;;5.60;2.53;;;12.10;94.90;12.20;99726.00;;;;342856;28;84961;-86
2021/05/08 00:51:08;;;;;;;4.57;2.83;;;12.10;94.90;12.10;99722.00;;;;341787;28;96285;-86
2021/05/08 00:51:19;;;;;;;5.68;3.20;;;12.10;94.90;12.20;99724.00;;;;342915;28;83439;-86
2021/05/08 00:51:31;;;;;;;5.10;2.95;;;12.00;94.90;12.10;99721.00;;;;342152;28;93972;-86
2021/05/08 00:51:42;;;;;;;4.18;2.50;;;12.10;95.00;12.00;99733.00;;;;345123;28;83442;-86
2021/05/08 00:51:55;;;;;;;4.10;2.58;;;12.10;94.90;12.00;99729.00;;;;343551;28;96739;-86
2021/05/08 00:52:07;;;;;;;4.28;2.55;;;12.10;94.90;12.10;99723.00;;;;341634;28;83455;-86
2021/05/08 00:52:18;;;;;;;4.70;3.17;;;12.10;94.90;12.10;99723.00;;;;343540;28;94834;-87
2021/05/08 00:52:31;;;;;;;4.57;3.42;;;12.10;94.90;12.00;99728.00;;;;341503;28;83293;-88
2021/05/08 00:52:42;;;;;;;4.70;3.15;;;12.10;95.00;12.00;99726.00;;;;344875;28;95060;-86
2021/05/08 00:52:53;;;;;;;4.95;2.80;;;12.10;95.00;12.00;99728.00;;;;342653;28;83428;-86
2021/05/08 00:53:07;;;;;;;5.00;2.65;;;12.10;94.90;12.10;99727.00;;;;343595;28;94178;-87
2021/05/08 00:53:19;;;;;;;4.78;2.80;;;12.10;94.90;12.20;99721.00;;;;344259;28;83357;-86
2021/05/08 00:53:30;;;;;;;5.07;2.95;;;12.10;94.90;12.10;99724.00;;;;344845;28;94677;-86
2021/05/08 00:53:42;;;;;;;4.95;3.10;;;12.10;94.90;12.10;99722.00;;;;340826;28;83930;-86
2021/05/08 00:53:54;;;;;;;5.82;3.13;;;12.10;94.90;12.10;99731.00;;;;342169;28;93772;-88
2021/05/08 00:54:05;;;;;;;6.32;3.40;;;12.00;94.90;12.00;99733.00;;;;342947;28;83289;-87